VCV2223 SVMG-SVMI
Flight info
| Callsign | VCV2223 |
|---|---|
| Flight time | 0h 37m |
| Altitude | 24000 |
| Route | ESPEP SARNI A561 CBC NETSI1 |
| Aircraft | A346/H-SDE2E3FGHIJ3J4J5M1RWXY/LB1D1 |
Departure
| Time | 2026-05-07 02:55 |
|---|---|
| Airport | Del Caribe Santiago Mariño International Airport (SVMG) |
Arrival
| Time | 2026-05-07 03:33 |
|---|---|
| Airport | Maiquetía Simón Bolívar International Airport (SVMI) |
| Time | Latitude | Longitude | Altitude | Speed | Heading |
|---|---|---|---|---|---|
| 2026-05-07 02:12 | 10.91612 | -63.96637 | 71 ft | 0 kts | 349° |
| 2026-05-07 02:42 | 10.91554 | -63.96676 | 67 ft | 0 kts | 349° |
| 2026-05-07 02:43 | 10.91573 | -63.96574 | 68 ft | 0 kts | 257° |
| 2026-05-07 02:44 | 10.91572 | -63.96577 | 68 ft | 1 kts | 257° |
| 2026-05-07 02:44 | 10.91572 | -63.96580 | 68 ft | 0 kts | 257° |
| 2026-05-07 02:46 | 10.91571 | -63.96582 | 68 ft | 1 kts | 257° |
| 2026-05-07 02:46 | 10.91567 | -63.96601 | 67 ft | 4 kts | 257° |
| 2026-05-07 02:47 | 10.91558 | -63.96641 | 65 ft | 7 kts | 257° |
| 2026-05-07 02:47 | 10.91545 | -63.96697 | 68 ft | 10 kts | 257° |
| 2026-05-07 02:47 | 10.91527 | -63.96775 | 67 ft | 12 kts | 258° |
| 2026-05-07 02:47 | 10.91509 | -63.96867 | 63 ft | 14 kts | 258° |
| 2026-05-07 02:48 | 10.91486 | -63.96968 | 68 ft | 15 kts | 245° |
| 2026-05-07 02:48 | 10.91398 | -63.97013 | 62 ft | 15 kts | 198° |
| 2026-05-07 02:48 | 10.91346 | -63.97104 | 66 ft | 17 kts | 259° |
| 2026-05-07 02:48 | 10.91322 | -63.97225 | 62 ft | 18 kts | 258° |
| 2026-05-07 02:49 | 10.91293 | -63.97363 | 61 ft | 21 kts | 258° |
| 2026-05-07 02:49 | 10.91261 | -63.97519 | 65 ft | 24 kts | 258° |
| 2026-05-07 02:49 | 10.91226 | -63.97690 | 65 ft | 26 kts | 258° |
| 2026-05-07 02:49 | 10.91187 | -63.97876 | 66 ft | 28 kts | 257° |
| 2026-05-07 02:50 | 10.91149 | -63.98067 | 65 ft | 21 kts | 258° |
| 2026-05-07 02:50 | 10.91081 | -63.98165 | 67 ft | 17 kts | 175° |
| 2026-05-07 02:50 | 10.91045 | -63.98138 | 74 ft | 0 kts | 120° |
| 2026-05-07 02:53 | 10.91032 | -63.98114 | 84 ft | 16 kts | 120° |
| 2026-05-07 02:54 | 10.90988 | -63.98021 | 86 ft | 9 kts | 92° |
| 2026-05-07 02:54 | 10.91008 | -63.97908 | 85 ft | 41 kts | 77° |
| 2026-05-07 02:54 | 10.91114 | -63.97387 | 76 ft | 107 kts | 77° |
| 2026-05-07 02:54 | 10.91311 | -63.96439 | 60 ft | 163 kts | 78° |
| 2026-05-07 02:55 | 10.91569 | -63.95208 | 405 ft | 181 kts | 78° |
| 2026-05-07 02:55 | 10.91820 | -63.93989 | 1263 ft | 174 kts | 80° |
| 2026-05-07 02:55 | 10.92071 | -63.92798 | 2087 ft | 170 kts | 81° |
| 2026-05-07 02:55 | 10.92290 | -63.91582 | 2683 ft | 180 kts | 86° |
| 2026-05-07 02:56 | 10.92118 | -63.90287 | 3108 ft | 195 kts | 117° |
| 2026-05-07 02:56 | 10.91186 | -63.89200 | 3525 ft | 217 kts | 143° |
| 2026-05-07 02:56 | 10.89710 | -63.88617 | 3974 ft | 243 kts | 172° |
| 2026-05-07 02:56 | 10.87974 | -63.88926 | 4446 ft | 270 kts | 205° |
| 2026-05-07 02:57 | 10.86551 | -63.90251 | 5128 ft | 284 kts | 230° |
| 2026-05-07 02:57 | 10.85456 | -63.91935 | 5997 ft | 286 kts | 236° |
| 2026-05-07 02:57 | 10.84428 | -63.93676 | 6804 ft | 288 kts | 236° |
| 2026-05-07 02:57 | 10.83401 | -63.95444 | 7540 ft | 291 kts | 237° |
| 2026-05-07 02:58 | 10.82373 | -63.97207 | 8274 ft | 294 kts | 237° |
| 2026-05-07 02:58 | 10.81319 | -63.99009 | 9007 ft | 298 kts | 237° |
| 2026-05-07 02:58 | 10.80321 | -64.00707 | 9700 ft | 301 kts | 237° |
| 2026-05-07 02:58 | 10.79232 | -64.02549 | 10345 ft | 306 kts | 237° |
| 2026-05-07 02:59 | 10.78102 | -64.04437 | 10751 ft | 320 kts | 237° |
| 2026-05-07 02:59 | 10.76948 | -64.06455 | 11034 ft | 338 kts | 245° |
| 2026-05-07 02:59 | 10.76367 | -64.08827 | 11329 ft | 355 kts | 264° |
| 2026-05-07 02:59 | 10.76241 | -64.11395 | 11632 ft | 371 kts | 269° |
| 2026-05-07 03:00 | 10.76193 | -64.14088 | 11903 ft | 387 kts | 269° |
| 2026-05-07 03:00 | 10.76122 | -64.16884 | 12186 ft | 402 kts | 269° |
| 2026-05-07 03:00 | 10.76011 | -64.19769 | 12667 ft | 411 kts | 268° |
| 2026-05-07 03:00 | 10.75921 | -64.21702 | 13082 ft | 413 kts | 268° |
| 2026-05-07 03:01 | 10.75718 | -64.25605 | 13882 ft | 419 kts | 268° |
| 2026-05-07 03:01 | 10.75554 | -64.28597 | 14391 ft | 424 kts | 268° |
| 2026-05-07 03:01 | 10.75386 | -64.31606 | 14987 ft | 426 kts | 268° |
| 2026-05-07 03:01 | 10.75215 | -64.34622 | 15639 ft | 427 kts | 267° |
| 2026-05-07 03:02 | 10.75097 | -64.36664 | 16069 ft | 428 kts | 267° |
| 2026-05-07 03:02 | 10.74921 | -64.39705 | 16671 ft | 431 kts | 267° |
| 2026-05-07 03:02 | 10.74746 | -64.42725 | 17268 ft | 433 kts | 267° |
| 2026-05-07 03:02 | 10.74567 | -64.45793 | 17883 ft | 435 kts | 267° |
| 2026-05-07 03:03 | 10.74387 | -64.48878 | 18517 ft | 436 kts | 266° |
| 2026-05-07 03:03 | 10.74205 | -64.51962 | 19071 ft | 437 kts | 266° |
| 2026-05-07 03:03 | 10.74022 | -64.55069 | 19574 ft | 439 kts | 268° |
| 2026-05-07 03:03 | 10.74059 | -64.58191 | 20060 ft | 442 kts | 274° |
| 2026-05-07 03:04 | 10.74288 | -64.61319 | 20546 ft | 444 kts | 275° |
| 2026-05-07 03:04 | 10.74551 | -64.64463 | 21032 ft | 446 kts | 275° |
| 2026-05-07 03:04 | 10.74806 | -64.67627 | 21487 ft | 449 kts | 275° |
| 2026-05-07 03:04 | 10.75047 | -64.70805 | 21936 ft | 451 kts | 275° |
| 2026-05-07 03:05 | 10.75274 | -64.73962 | 22375 ft | 454 kts | 275° |
| 2026-05-07 03:05 | 10.75497 | -64.77184 | 22803 ft | 456 kts | 275° |
| 2026-05-07 03:05 | 10.75715 | -64.80421 | 23232 ft | 459 kts | 275° |
| 2026-05-07 03:05 | 10.75931 | -64.83670 | 23639 ft | 461 kts | 275° |
| 2026-05-07 03:06 | 10.76146 | -64.86937 | 23945 ft | 463 kts | 275° |
| 2026-05-07 03:06 | 10.76360 | -64.90207 | 24036 ft | 463 kts | 275° |
| 2026-05-07 03:06 | 10.76573 | -64.93480 | 24038 ft | 462 kts | 275° |
| 2026-05-07 03:06 | 10.76785 | -64.96751 | 24045 ft | 462 kts | 275° |
| 2026-05-07 03:07 | 10.76993 | -64.99972 | 24039 ft | 462 kts | 275° |
| 2026-05-07 03:07 | 10.77204 | -65.03247 | 24048 ft | 462 kts | 275° |
| 2026-05-07 03:07 | 10.77415 | -65.06514 | 24033 ft | 462 kts | 275° |
| 2026-05-07 03:07 | 10.77625 | -65.09787 | 24036 ft | 462 kts | 275° |
| 2026-05-07 03:08 | 10.77835 | -65.13055 | 24043 ft | 462 kts | 275° |
| 2026-05-07 03:08 | 10.78044 | -65.16318 | 24037 ft | 462 kts | 275° |
| 2026-05-07 03:08 | 10.78254 | -65.19590 | 24043 ft | 462 kts | 275° |
| 2026-05-07 03:08 | 10.78462 | -65.22854 | 24041 ft | 462 kts | 275° |
| 2026-05-07 03:09 | 10.78670 | -65.26126 | 24037 ft | 463 kts | 275° |
| 2026-05-07 03:09 | 10.78878 | -65.29391 | 24045 ft | 463 kts | 275° |
| 2026-05-07 03:09 | 10.79083 | -65.32621 | 24039 ft | 463 kts | 275° |
| 2026-05-07 03:09 | 10.79293 | -65.35938 | 24047 ft | 463 kts | 275° |
| 2026-05-07 03:10 | 10.79497 | -65.39170 | 24042 ft | 463 kts | 275° |
| 2026-05-07 03:10 | 10.79705 | -65.42456 | 24042 ft | 463 kts | 275° |
| 2026-05-07 03:10 | 10.79911 | -65.45726 | 24043 ft | 463 kts | 275° |
| 2026-05-07 03:10 | 10.80117 | -65.49004 | 24043 ft | 463 kts | 275° |
| 2026-05-07 03:11 | 10.80324 | -65.52281 | 24036 ft | 463 kts | 275° |
| 2026-05-07 03:11 | 10.80530 | -65.55557 | 24045 ft | 463 kts | 275° |
| 2026-05-07 03:11 | 10.80735 | -65.58831 | 24039 ft | 463 kts | 275° |
| 2026-05-07 03:11 | 10.80939 | -65.62064 | 24042 ft | 463 kts | 275° |
| 2026-05-07 03:12 | 10.81144 | -65.65341 | 24045 ft | 463 kts | 275° |
| 2026-05-07 03:12 | 10.81349 | -65.68617 | 24043 ft | 463 kts | 275° |
| 2026-05-07 03:12 | 10.81553 | -65.71893 | 24047 ft | 463 kts | 275° |
| 2026-05-07 03:12 | 10.81758 | -65.75176 | 24051 ft | 463 kts | 275° |
| 2026-05-07 03:13 | 10.81962 | -65.78452 | 24043 ft | 463 kts | 275° |
| 2026-05-07 03:13 | 10.82166 | -65.81730 | 24041 ft | 464 kts | 275° |
| 2026-05-07 03:13 | 10.82369 | -65.85013 | 24053 ft | 464 kts | 275° |
| 2026-05-07 03:13 | 10.82570 | -65.88258 | 24044 ft | 464 kts | 275° |
| 2026-05-07 03:14 | 10.82772 | -65.91532 | 24052 ft | 464 kts | 275° |
| 2026-05-07 03:14 | 10.82974 | -65.94808 | 23990 ft | 460 kts | 275° |
| 2026-05-07 03:14 | 10.83372 | -66.01291 | 22711 ft | 459 kts | 275° |
| 2026-05-07 03:15 | 10.83571 | -66.04525 | 22104 ft | 457 kts | 275° |
| 2026-05-07 03:15 | 10.83769 | -66.07757 | 21537 ft | 454 kts | 275° |
| 2026-05-07 03:15 | 10.83965 | -66.10956 | 20943 ft | 452 kts | 275° |
| 2026-05-07 03:15 | 10.84159 | -66.14153 | 20396 ft | 451 kts | 275° |
| 2026-05-07 03:16 | 10.84352 | -66.17327 | 19885 ft | 448 kts | 275° |
| 2026-05-07 03:16 | 10.84544 | -66.20496 | 19394 ft | 445 kts | 275° |
| 2026-05-07 03:16 | 10.84734 | -66.23628 | 18921 ft | 442 kts | 275° |
| 2026-05-07 03:16 | 10.84923 | -66.26751 | 18450 ft | 440 kts | 275° |
| 2026-05-07 03:17 | 10.85111 | -66.29862 | 17929 ft | 438 kts | 275° |
| 2026-05-07 03:17 | 10.85298 | -66.32946 | 17446 ft | 434 kts | 275° |
| 2026-05-07 03:17 | 10.85484 | -66.36007 | 17002 ft | 430 kts | 275° |
| 2026-05-07 03:17 | 10.85667 | -66.39035 | 16578 ft | 426 kts | 275° |
| 2026-05-07 03:18 | 10.85847 | -66.42039 | 16157 ft | 423 kts | 275° |
| 2026-05-07 03:18 | 10.86025 | -66.44979 | 15756 ft | 420 kts | 275° |
| 2026-05-07 03:18 | 10.86202 | -66.47939 | 15344 ft | 417 kts | 275° |
| 2026-05-07 03:18 | 10.86379 | -66.50881 | 14940 ft | 414 kts | 275° |
| 2026-05-07 03:19 | 10.86554 | -66.53803 | 14536 ft | 411 kts | 275° |
| 2026-05-07 03:19 | 10.86727 | -66.56704 | 14144 ft | 409 kts | 274° |
| 2026-05-07 03:19 | 10.86900 | -66.59588 | 13735 ft | 407 kts | 274° |
| 2026-05-07 03:19 | 10.87072 | -66.62470 | 13300 ft | 404 kts | 274° |
| 2026-05-07 03:20 | 10.87242 | -66.65323 | 12922 ft | 400 kts | 274° |
| 2026-05-07 03:20 | 10.87409 | -66.68140 | 12552 ft | 396 kts | 274° |
| 2026-05-07 03:20 | 10.87574 | -66.70931 | 12180 ft | 393 kts | 273° |
| 2026-05-07 03:20 | 10.87738 | -66.73695 | 11811 ft | 389 kts | 273° |
| 2026-05-07 03:21 | 10.87900 | -66.76437 | 11449 ft | 386 kts | 272° |
| 2026-05-07 03:21 | 10.88060 | -66.79159 | 11078 ft | 383 kts | 272° |
| 2026-05-07 03:21 | 10.88218 | -66.81854 | 10737 ft | 379 kts | 272° |
| 2026-05-07 03:21 | 10.88374 | -66.84502 | 10618 ft | 367 kts | 272° |
| 2026-05-07 03:22 | 10.88520 | -66.87014 | 10553 ft | 353 kts | 272° |
| 2026-05-07 03:22 | 10.88663 | -66.89461 | 10471 ft | 340 kts | 271° |
| 2026-05-07 03:22 | 10.88785 | -66.91826 | 10376 ft | 327 kts | 269° |
| 2026-05-07 03:22 | 10.88776 | -66.94094 | 10292 ft | 315 kts | 266° |
| 2026-05-07 03:23 | 10.88706 | -66.96297 | 10212 ft | 303 kts | 265° |
| 2026-05-07 03:23 | 10.88628 | -66.98430 | 10137 ft | 298 kts | 265° |
| 2026-05-07 03:23 | 10.88553 | -67.00530 | 10052 ft | 295 kts | 265° |
| 2026-05-07 03:23 | 10.88481 | -67.02624 | 9806 ft | 296 kts | 265° |
| 2026-05-07 03:24 | 10.88411 | -67.04723 | 9471 ft | 296 kts | 265° |
| 2026-05-07 03:24 | 10.88235 | -67.06771 | 9147 ft | 292 kts | 253° |
| 2026-05-07 03:24 | 10.87509 | -67.08671 | 8837 ft | 285 kts | 235° |
| 2026-05-07 03:24 | 10.86427 | -67.10352 | 8535 ft | 282 kts | 231° |
| 2026-05-07 03:25 | 10.85305 | -67.11985 | 8235 ft | 281 kts | 231° |
| 2026-05-07 03:25 | 10.84185 | -67.13617 | 7949 ft | 280 kts | 231° |
| 2026-05-07 03:25 | 10.83084 | -67.15243 | 7659 ft | 278 kts | 232° |
| 2026-05-07 03:25 | 10.81989 | -67.16873 | 7354 ft | 278 kts | 232° |
| 2026-05-07 03:26 | 10.80905 | -67.18497 | 7069 ft | 276 kts | 232° |
| 2026-05-07 03:26 | 10.79794 | -67.20083 | 6758 ft | 274 kts | 223° |
| 2026-05-07 03:26 | 10.78245 | -67.21124 | 6430 ft | 265 kts | 193° |
| 2026-05-07 03:26 | 10.76467 | -67.21305 | 6108 ft | 260 kts | 175° |
| 2026-05-07 03:27 | 10.74658 | -67.21195 | 5802 ft | 259 kts | 175° |
| 2026-05-07 03:27 | 10.72863 | -67.21086 | 5498 ft | 258 kts | 175° |
| 2026-05-07 03:27 | 10.71073 | -67.20989 | 5189 ft | 257 kts | 175° |
| 2026-05-07 03:27 | 10.69289 | -67.20894 | 4894 ft | 256 kts | 175° |
| 2026-05-07 03:28 | 10.67513 | -67.20804 | 4599 ft | 255 kts | 175° |
| 2026-05-07 03:28 | 10.65757 | -67.20719 | 4405 ft | 248 kts | 175° |
| 2026-05-07 03:28 | 10.64074 | -67.20636 | 4383 ft | 237 kts | 175° |
| 2026-05-07 03:28 | 10.62428 | -67.20554 | 4317 ft | 236 kts | 175° |
| 2026-05-07 03:29 | 10.60818 | -67.20308 | 4093 ft | 234 kts | 152° |
| 2026-05-07 03:29 | 10.59669 | -67.19199 | 3811 ft | 231 kts | 113° |
| 2026-05-07 03:29 | 10.59421 | -67.17584 | 3404 ft | 235 kts | 87° |
| 2026-05-07 03:29 | 10.59592 | -67.15943 | 3078 ft | 236 kts | 84° |
| 2026-05-07 03:30 | 10.59769 | -67.14294 | 2767 ft | 230 kts | 86° |
| 2026-05-07 03:30 | 10.59887 | -67.12692 | 2501 ft | 220 kts | 88° |
| 2026-05-07 03:30 | 10.59962 | -67.11161 | 2177 ft | 213 kts | 89° |
| 2026-05-07 03:30 | 10.60016 | -67.09679 | 1873 ft | 204 kts | 89° |
| 2026-05-07 03:31 | 10.60060 | -67.08273 | 1596 ft | 193 kts | 89° |
| 2026-05-07 03:31 | 10.60098 | -67.06943 | 1327 ft | 183 kts | 89° |
| 2026-05-07 03:31 | 10.60144 | -67.05677 | 1094 ft | 176 kts | 88° |
| 2026-05-07 03:31 | 10.60165 | -67.04397 | 926 ft | 175 kts | 91° |
| 2026-05-07 03:32 | 10.60175 | -67.03159 | 635 ft | 173 kts | 89° |
| 2026-05-07 03:32 | 10.60195 | -67.01918 | 428 ft | 177 kts | 88° |
| 2026-05-07 03:32 | 10.60235 | -67.00661 | 233 ft | 175 kts | 88° |
| 2026-05-07 03:32 | 10.60266 | -66.99608 | 222 ft | 117 kts | 89° |
| 2026-05-07 03:33 | 10.60284 | -66.99017 | 195 ft | 42 kts | 88° |
| 2026-05-07 03:33 | 10.60301 | -66.98901 | 192 ft | 4 kts | 61° |
| 2026-05-07 03:33 | 10.60304 | -66.98882 | 190 ft | 4 kts | 96° |
| 2026-05-07 03:33 | 10.60294 | -66.98876 | 191 ft | 2 kts | 189° |
| 2026-05-07 03:34 | 10.60285 | -66.98897 | 197 ft | 8 kts | 259° |
| 2026-05-07 03:34 | 10.60282 | -66.99034 | 195 ft | 37 kts | 269° |
| 2026-05-07 03:34 | 10.60273 | -66.99332 | 210 ft | 31 kts | 268° |
| 2026-05-07 03:34 | 10.60266 | -66.99537 | 222 ft | 28 kts | 268° |
| 2026-05-07 03:35 | 10.60229 | -66.99669 | 224 ft | 12 kts | 190° |
| 2026-05-07 03:35 | 10.60151 | -66.99682 | 222 ft | 10 kts | 226° |
| 2026-05-07 03:35 | 10.60138 | -66.99749 | 227 ft | 10 kts | 267° |
| 2026-05-07 03:35 | 10.60136 | -66.99815 | 230 ft | 9 kts | 268° |
| 2026-05-07 03:36 | 10.60131 | -66.99881 | 227 ft | 9 kts | 252° |
| 2026-05-07 03:36 | 10.60087 | -66.99917 | 233 ft | 9 kts | 178° |
| 2026-05-07 03:36 | 10.60014 | -66.99913 | 228 ft | 11 kts | 178° |
| 2026-05-07 03:36 | 10.59933 | -66.99921 | 232 ft | 10 kts | 220° |
| 2026-05-07 03:37 | 10.59913 | -66.99999 | 229 ft | 13 kts | 266° |
| 2026-05-07 03:37 | 10.59909 | -67.00093 | 230 ft | 14 kts | 267° |
| 2026-05-07 03:37 | 10.59906 | -67.00193 | 234 ft | 14 kts | 268° |
| 2026-05-07 03:37 | 10.59881 | -67.00236 | 233 ft | 0 kts | 200° |
| 2026-05-07 03:38 | 10.59878 | -67.00237 | 233 ft | 1 kts | 191° |
| 2026-05-07 03:38 | 10.59870 | -67.00236 | 233 ft | 1 kts | 168° |
| 2026-05-07 03:38 | 10.59868 | -67.00235 | 233 ft | 0 kts | 162° |
| 2026-05-07 03:39 | 10.59847 | -67.00230 | 234 ft | 4 kts | 174° |
| 2026-05-07 03:39 | 10.59839 | -67.00230 | 235 ft | 0 kts | 176° |